Time;durP1;ratioP1;P1;durP2;ratioP2;P2;SDS_P1;SDS_P2;PMS_P1;PMS_P2;Temp;Humidity;BMP_temperature;BMP_pressure;BME280_temperature;BME280_humidity;BME280_pressure;Samples;Min_cycle;Max_cycle;Signal;HPM_P1;HPM_P2
2023/01/29 00:05:03;;;;;;;25.2;14;;;;;;;0.2;83.6;99620;;;;
2023/01/29 00:16:01;;;;;;;25.2;14;;;;;;;0.1;84.1;99620;;;;
2023/01/29 00:27:01;;;;;;;25.2;14;;;;;;;0.2;84;99630;;;;
2023/01/29 00:38:01;;;;;;;21.7;11.1;;;;;;;0.2;84;99630;;;;
2023/01/29 00:48:01;;;;;;;21.7;11.1;;;;;;;0.3;84.2;99640;;;;
2023/01/29 00:59:01;;;;;;;20.4;12.1;;;;;;;0.3;84.5;99640;;;;
2023/01/29 01:10:33;;;;;;;20.4;12.1;;;;;;;0;85;99640;;;;
2023/01/29 01:21:01;;;;;;;20.4;12.1;;;;;;;0;84.8;99650;;;;
2023/01/29 01:32:01;;;;;;;15.5;7.7;;;;;;;-0.1;84;99650;;;;
2023/01/29 01:43:01;;;;;;;15.5;7.7;;;;;;;-0.2;82.4;99650;;;;
2023/01/29 01:53:01;;;;;;;15.5;7.7;;;;;;;-0.3;82.3;99660;;;;
2023/01/29 02:14:02;;;;;;;12;6.2;;;;;;;-0.4;82.6;99640;;;;
2023/01/29 02:25:08;;;;;;;12;6.2;;;;;;;-0.4;82.2;99620;;;;
2023/01/29 02:36:01;;;;;;;7.9;4.2;;;;;;;-0.4;82.6;99600;;;;
2023/01/29 02:46:01;;;;;;;7.9;4.2;;;;;;;-0.3;82.2;99610;;;;
2023/01/29 02:57:01;;;;;;;7.9;4.2;;;;;;;-0.5;79.9;99610;;;;
2023/01/29 03:07:01;;;;;;;11;5;;;;;;;-0.5;80.5;99600;;;;
2023/01/29 03:17:01;;;;;;;11;5;;;;;;;-0.6;81.3;99610;;;;
2023/01/29 03:38:02;;;;;;;12.1;6.7;;;;;;;-0.7;81.3;99630;;;;
2023/01/29 03:49:01;;;;;;;12.1;6.7;;;;;;;-0.7;80.7;99640;;;;
2023/01/29 04:00:03;;;;;;;12.5;5.6;;;;;;;-0.7;80.7;99630;;;;
2023/01/29 04:11:02;;;;;;;12.5;5.6;;;;;;;-0.7;80.6;99610;;;;
2023/01/29 04:21:01;;;;;;;12.5;5.6;;;;;;;-0.8;80.4;99610;;;;
2023/01/29 04:31:01;;;;;;;16.4;9.3;;;;;;;-0.8;79.6;99600;;;;
2023/01/29 04:41:02;;;;;;;16.4;9.3;;;;;;;-0.9;79.8;99610;;;;
2023/01/29 04:52:01;;;;;;;16.4;9.3;;;;;;;-1.1;80.1;99570;;;;
2023/01/29 05:02:01;;;;;;;28.3;13.6;;;;;;;-1.1;80.7;99570;;;;
2023/01/29 05:13:01;;;;;;;28.3;13.6;;;;;;;-1.2;80.1;99570;;;;
2023/01/29 05:24:01;;;;;;;28.3;13.6;;;;;;;-1.3;80.6;99560;;;;
2023/01/29 05:35:01;;;;;;;14.2;7.1;;;;;;;-1.6;78.5;99580;;;;
2023/01/29 05:45:01;;;;;;;14.2;7.1;;;;;;;-1.7;78.2;99590;;;;
2023/01/29 05:56:01;;;;;;;14.2;7.1;;;;;;;-1.9;78.7;99610;;;;
2023/01/29 06:06:01;;;;;;;12.3;6;;;;;;;-1.9;78.1;99610;;;;
2023/01/29 06:16:01;;;;;;;12.3;6;;;;;;;-1.8;77.7;99620;;;;
2023/01/29 06:27:01;;;;;;;12.3;6;;;;;;;-1.8;77.5;99630;;;;
2023/01/29 06:37:02;;;;;;;14.2;5.8;;;;;;;-1.9;75;99630;;;;
2023/01/29 06:47:01;;;;;;;14.2;5.8;;;;;;;-1.9;74.9;99640;;;;
2023/01/29 06:58:01;;;;;;;8.9;4.3;;;;;;;-2;73.6;99650;;;;
2023/01/29 07:08:01;;;;;;;8.9;4.3;;;;;;;-2;73.4;99640;;;;
2023/01/29 07:19:01;;;;;;;8.9;4.3;;;;;;;-1.9;73.6;99650;;;;
2023/01/29 07:29:01;;;;;;;6.7;4;;;;;;;-1.9;72.3;99650;;;;
2023/01/29 07:39:01;;;;;;;6.7;4;;;;;;;-1.9;72.5;99650;;;;
2023/01/29 07:50:01;;;;;;;6.7;4;;;;;;;-2;73.5;99660;;;;
2023/01/29 08:00:02;;;;;;;6.7;4.3;;;;;;;-1.7;73.8;99670;;;;
2023/01/29 08:11:01;;;;;;;6.7;4.3;;;;;;;-1.6;73;99690;;;;
2023/01/29 08:21:02;;;;;;;6.7;4.3;;;;;;;-1.5;73.6;99700;;;;
2023/01/29 08:32:01;;;;;;;8.5;3.7;;;;;;;-0.9;72.9;99720;;;;
2023/01/29 08:43:01;;;;;;;8.5;3.7;;;;;;;-0.8;72.5;99740;;;;
2023/01/29 08:53:01;;;;;;;8.5;3.7;;;;;;;-0.6;72.5;99720;;;;
2023/01/29 09:04:01;;;;;;;8.9;4.4;;;;;;;-1;72.9;99710;;;;
2023/01/29 09:14:01;;;;;;;8.9;4.4;;;;;;;-0.6;73.1;99690;;;;
2023/01/29 09:24:01;;;;;;;8.9;4.4;;;;;;;-0.5;72.6;99690;;;;
2023/01/29 09:35:01;;;;;;;7.3;4.1;;;;;;;-0.2;72;99690;;;;
2023/01/29 09:45:02;;;;;;;7.3;4.1;;;;;;;-0.1;72.5;99670;;;;
2023/01/29 09:59:57;;;;;;;7.1;4.9;;;;;;;-0.2;72.2;99640;;;;
2023/01/29 10:09:57;;;;;;;7.1;4.9;;;;;;;-0.3;73.2;99630;;;;
2023/01/29 10:20:57;;;;;;;7.1;4.9;;;;;;;-0.2;71.6;99620;;;;
2023/01/29 10:30:57;;;;;;;9.9;5.5;;;;;;;-0.3;72.5;99610;;;;
2023/01/29 10:41:57;;;;;;;9.9;5.5;;;;;;;-0.2;73.5;99600;;;;
2023/01/29 10:52:57;;;;;;;9.9;5.5;;;;;;;-0.2;73.1;99560;;;;
2023/01/29 11:03:57;;;;;;;13.8;8.2;;;;;;;-0.1;72.7;99530;;;;
2023/01/29 11:14:57;;;;;;;13.8;8.2;;;;;;;0.4;70.4;99500;;;;
2023/01/29 11:24:57;;;;;;;13.8;8.2;;;;;;;0.3;70.4;99480;;;;
2023/01/29 11:34:57;;;;;;;12.2;7.8;;;;;;;0.1;70.5;99480;;;;
2023/01/29 11:44:58;;;;;;;12.2;7.8;;;;;;;0;70;99460;;;;
2023/01/29 11:55:57;;;;;;;12.2;7.8;;;;;;;0;69.9;99440;;;;
2023/01/29 12:05:57;;;;;;;13.9;6.6;;;;;;;0.1;70.7;99420;;;;
2023/01/29 12:16:57;;;;;;;13.9;6.6;;;;;;;0.2;70.2;99410;;;;
2023/01/29 12:27:57;;;;;;;11.8;6.4;;;;;;;0;68.1;99420;;;;
2023/01/29 12:37:59;;;;;;;11.8;6.4;;;;;;;0;68.7;99430;;;;
2023/01/29 12:48:57;;;;;;;11.8;6.4;;;;;;;-0.3;69.2;99430;;;;
2023/01/29 12:59:57;;;;;;;13.4;6.6;;;;;;;-0.2;69.5;99430;;;;
2023/01/29 13:09:57;;;;;;;13.4;6.6;;;;;;;-0.4;70.5;99420;;;;
2023/01/29 13:19:57;;;;;;;13.4;6.6;;;;;;;-0.2;70.1;99410;;;;
2023/01/29 13:30:57;;;;;;;14.3;7.5;;;;;;;-0.3;69.7;99400;;;;
2023/01/29 13:41:57;;;;;;;14.3;7.5;;;;;;;-0.4;69.7;99400;;;;
2023/01/29 13:51:57;;;;;;;14.3;7.5;;;;;;;-0.6;69.9;99400;;;;
2023/01/29 14:01:57;;;;;;;11.5;7.4;;;;;;;-0.5;70.5;99380;;;;
2023/01/29 14:12:57;;;;;;;11.5;7.4;;;;;;;-0.8;69.3;99400;;;;
2023/01/29 14:23:58;;;;;;;11.5;7.4;;;;;;;-0.8;69.7;99400;;;;
2023/01/29 14:33:57;;;;;;;14.5;6;;;;;;;-1;70.3;99370;;;;
2023/01/29 14:43:57;;;;;;;14.5;6;;;;;;;-1;70.8;99380;;;;
2023/01/29 14:53:57;;;;;;;14.5;6;;;;;;;-1.3;71.1;99380;;;;
2023/01/29 15:03:57;;;;;;;11.7;6.6;;;;;;;-1.4;71.8;99370;;;;
2023/01/29 15:13:57;;;;;;;11.7;6.6;;;;;;;-1.5;72.6;99360;;;;
2023/01/29 15:24:57;;;;;;;11.7;6.6;;;;;;;-1.6;73.1;99350;;;;
2023/01/29 15:35:57;;;;;;;12.4;8.2;;;;;;;-1.8;73.9;99330;;;;
2023/01/29 15:46:57;;;;;;;12.4;8.2;;;;;;;-1.9;74.2;99320;;;;
2023/01/29 15:57:57;;;;;;;16.6;9.6;;;;;;;-2;74.4;99340;;;;
2023/01/29 16:07:57;;;;;;;16.6;9.6;;;;;;;-2;74.7;99330;;;;
2023/01/29 16:18:57;;;;;;;16.6;9.6;;;;;;;-2.1;75;99320;;;;
2023/01/29 16:29:57;;;;;;;14.6;8.6;;;;;;;-2.1;74.9;99330;;;;
2023/01/29 16:40:57;;;;;;;14.6;8.6;;;;;;;-2.1;74.8;99340;;;;
2023/01/29 16:50:57;;;;;;;14.6;8.6;;;;;;;-2.1;74.8;99340;;;;
2023/01/29 17:01:57;;;;;;;13.8;8.9;;;;;;;-2;74.4;99350;;;;
2023/01/29 17:12:57;;;;;;;13.8;8.9;;;;;;;-1.9;74.5;99330;;;;
2023/01/29 17:22:57;;;;;;;13.8;8.9;;;;;;;-1.9;74.3;99320;;;;
2023/01/29 17:33:57;;;;;;;18.2;10.4;;;;;;;-1.9;74.3;99300;;;;
2023/01/29 17:43:57;;;;;;;18.2;10.4;;;;;;;-1.9;74.2;99290;;;;
2023/01/29 17:53:57;;;;;;;18.2;10.4;;;;;;;-1.9;74.4;99300;;;;
2023/01/29 18:04:57;;;;;;;19.6;10.2;;;;;;;-1.9;74.3;99290;;;;
2023/01/29 18:14:57;;;;;;;19.6;10.2;;;;;;;-1.8;74.4;99270;;;;
2023/01/29 18:25:57;;;;;;;22.9;12.1;;;;;;;-1.7;74.2;99260;;;;
2023/01/29 18:36:58;;;;;;;22.9;12.1;;;;;;;-1.6;74.4;99280;;;;
2023/01/29 18:46:57;;;;;;;22.9;12.1;;;;;;;-1.5;74.5;99270;;;;
2023/01/29 18:56:57;;;;;;;26.8;15;;;;;;;-1.6;74.2;99250;;;;
2023/01/29 19:06:57;;;;;;;26.8;15;;;;;;;-1.6;74.7;99250;;;;
2023/01/29 19:17:57;;;;;;;26.8;15;;;;;;;-1.6;74.6;99250;;;;
2023/01/29 19:27:57;;;;;;;25.8;16.6;;;;;;;-1.6;74.9;99210;;;;
2023/01/29 19:37:57;;;;;;;25.8;16.6;;;;;;;-1.6;75;99210;;;;
2023/01/29 19:47:57;;;;;;;25.8;16.6;;;;;;;-1.5;75.2;99210;;;;
2023/01/29 19:58:57;;;;;;;23.2;14.9;;;;;;;-1.5;75.5;99190;;;;
2023/01/29 20:09:57;;;;;;;23.2;14.9;;;;;;;-1.5;75.4;99190;;;;
2023/01/29 20:19:57;;;;;;;23.2;14.9;;;;;;;-1.4;75.4;99190;;;;
2023/01/29 20:29:57;;;;;;;24.1;12;;;;;;;-1.4;75.6;99190;;;;
2023/01/29 20:40:57;;;;;;;24.1;12;;;;;;;-1.4;75.7;99170;;;;
2023/01/29 20:50:57;;;;;;;24.1;12;;;;;;;-1.4;75.7;99160;;;;
2023/01/29 21:00:57;;;;;;;24.8;14.9;;;;;;;-1.3;75.7;99150;;;;
2023/01/29 21:11:57;;;;;;;24.8;14.9;;;;;;;-1.3;76.1;99150;;;;
2023/01/29 21:22:57;;;;;;;24.8;14.9;;;;;;;-1.2;76.2;99150;;;;
2023/01/29 21:32:57;;;;;;;41.6;22.7;;;;;;;-1.2;76.1;99130;;;;
2023/01/29 21:43:57;;;;;;;41.6;22.7;;;;;;;-1.2;76.4;99120;;;;
2023/01/29 21:53:56;;;;;;;41.6;22.7;;;;;;;-1.3;76.3;99110;;;;
2023/01/29 22:04:59;;;;;;;30.6;16.6;;;;;;;-1.3;76.4;99090;;;;
2023/01/29 22:14:57;;;;;;;30.6;16.6;;;;;;;-1.6;77;99070;;;;
2023/01/29 22:24:57;;;;;;;24.2;13.5;;;;;;;-1.7;77.1;99060;;;;
2023/01/29 22:34:57;;;;;;;24.2;13.5;;;;;;;-1.7;77.6;99040;;;;
2023/01/29 22:44:56;;;;;;;24.2;13.5;;;;;;;-1.9;78;99020;;;;
2023/01/29 22:55:56;;;;;;;17.2;11.6;;;;;;;-2.1;78.6;98990;;;;
2023/01/29 23:05:57;;;;;;;17.2;11.6;;;;;;;-2.1;78.4;98990;;;;
2023/01/29 23:15:57;;;;;;;17.2;11.6;;;;;;;-2.2;79.1;98980;;;;
2023/01/29 23:36:57;;;;;;;18.8;11.4;;;;;;;-1.9;79.5;98950;;;;
2023/01/29 23:47:57;;;;;;;18.8;11.4;;;;;;;-1.8;79.4;98930;;;;
2023/01/29 23:58:56;;;;;;;21.8;12.6;;;;;;;-1.6;79.2;98900;;;;
